Marydel, Maryland
Current Conditions -  °F | °C
As of 2:58 PM on Saturday 20 Dec 2014 (Local Time) from KDOV Reporting Station
Overcast Overcast  
Wind Chill: 31°   Ceiling: 3000
Heat Index: 35°   Visibility: 10mi
Dew Point: 25°   Wind: 5mph
Humidity: 66%   Direction: 80°E
Pressure: 30.24"   Gusts: NA
Location:  39.11°N, 75.75°W
Report Text: KDOV 201958Z AUTO 08004KT 10SM OVC030 02/M04 A3024 RMK AO2 SLP244 T00171041
Loading
Personal Weather Stations






























Interactive Weather Map New forecast layout! Learn more

10-Day Weather Forecast

Advertisements
Track Severe Weather on mobile